sensor_id;sensor_type;location;lat;lon;timestamp;P1;durP1;ratioP1;P2;durP2;ratioP2
1531;SDS011;759;53.170;8.210;2022-07-09T00:58:58;7.00;;;4.70;;
1531;SDS011;759;53.170;8.210;2022-07-09T02:21:24;6.20;;;4.40;;
1531;SDS011;759;53.170;8.210;2022-07-09T02:28:40;6.10;;;5.50;;
1531;SDS011;759;53.170;8.210;2022-07-09T02:31:06;6.00;;;5.00;;
1531;SDS011;759;53.170;8.210;2022-07-09T02:38:23;6.70;;;6.05;;
1531;SDS011;759;53.170;8.210;2022-07-09T02:45:39;11.00;;;6.80;;
1531;SDS011;759;53.170;8.210;2022-07-09T02:48:05;12.50;;;7.70;;
1531;SDS011;759;53.170;8.210;2022-07-09T02:55:21;9.30;;;6.60;;
1531;SDS011;759;53.170;8.210;2022-07-09T02:57:46;7.20;;;6.30;;
1531;SDS011;759;53.170;8.210;2022-07-09T03:00:12;10.50;;;7.80;;
1531;SDS011;759;53.170;8.210;2022-07-09T03:05:03;7.60;;;6.80;;
1531;SDS011;759;53.170;8.210;2022-07-09T03:19:35;7.80;;;7.00;;
1531;SDS011;759;53.170;8.210;2022-07-09T03:34:08;13.75;;;7.90;;
1531;SDS011;759;53.170;8.210;2022-07-09T03:38:59;15.10;;;7.70;;
1531;SDS011;759;53.170;8.210;2022-07-09T03:41:25;10.20;;;8.50;;
1531;SDS011;759;53.170;8.210;2022-07-09T03:46:16;15.00;;;8.10;;
1531;SDS011;759;53.170;8.210;2022-07-09T03:48:41;9.20;;;7.40;;
1531;SDS011;759;53.170;8.210;2022-07-09T03:51:06;11.20;;;8.60;;
1531;SDS011;759;53.170;8.210;2022-07-09T03:53:32;10.10;;;7.60;;
1531;SDS011;759;53.170;8.210;2022-07-09T03:55:58;10.30;;;8.70;;
1531;SDS011;759;53.170;8.210;2022-07-09T03:58:23;9.45;;;8.00;;
1531;SDS011;759;53.170;8.210;2022-07-09T04:00:49;12.20;;;7.60;;
1531;SDS011;759;53.170;8.210;2022-07-09T04:05:40;9.37;;;8.20;;
1531;SDS011;759;53.170;8.210;2022-07-09T04:08:06;10.73;;;8.43;;
1531;SDS011;759;53.170;8.210;2022-07-09T04:10:32;12.30;;;8.20;;
1531;SDS011;759;53.170;8.210;2022-07-09T04:12:57;15.25;;;7.95;;
1531;SDS011;759;53.170;8.210;2022-07-09T04:15:23;11.23;;;9.40;;
1531;SDS011;759;53.170;8.210;2022-07-09T04:17:48;10.55;;;9.45;;
1531;SDS011;759;53.170;8.210;2022-07-09T04:20:14;11.00;;;8.30;;
1531;SDS011;759;53.170;8.210;2022-07-09T04:22:39;17.50;;;8.50;;
1531;SDS011;759;53.170;8.210;2022-07-09T04:25:05;12.70;;;9.10;;
1531;SDS011;759;53.170;8.210;2022-07-09T04:27:30;12.30;;;9.45;;
1531;SDS011;759;53.170;8.210;2022-07-09T04:32:21;14.50;;;8.43;;
1531;SDS011;759;53.170;8.210;2022-07-09T04:34:46;14.10;;;8.30;;
1531;SDS011;759;53.170;8.210;2022-07-09T04:37:12;11.40;;;7.75;;
1531;SDS011;759;53.170;8.210;2022-07-09T04:39:37;12.60;;;8.43;;
1531;SDS011;759;53.170;8.210;2022-07-09T04:42:03;13.57;;;9.33;;
1531;SDS011;759;53.170;8.210;2022-07-09T04:44:28;12.20;;;9.40;;
1531;SDS011;759;53.170;8.210;2022-07-09T04:46:54;13.75;;;9.10;;
1531;SDS011;759;53.170;8.210;2022-07-09T04:49:19;14.60;;;9.67;;
1531;SDS011;759;53.170;8.210;2022-07-09T04:51:46;10.33;;;8.87;;
1531;SDS011;759;53.170;8.210;2022-07-09T04:54:11;11.53;;;8.83;;
1531;SDS011;759;53.170;8.210;2022-07-09T04:56:36;12.80;;;7.95;;
1531;SDS011;759;53.170;8.210;2022-07-09T04:59:02;13.80;;;8.73;;
1531;SDS011;759;53.170;8.210;2022-07-09T05:01:27;8.90;;;7.70;;
1531;SDS011;759;53.170;8.210;2022-07-09T05:03:54;8.20;;;7.27;;
1531;SDS011;759;53.170;8.210;2022-07-09T05:06:20;12.20;;;7.60;;
1531;SDS011;759;53.170;8.210;2022-07-09T05:08:45;8.63;;;7.73;;
1531;SDS011;759;53.170;8.210;2022-07-09T05:11:12;10.50;;;8.23;;
1531;SDS011;759;53.170;8.210;2022-07-09T05:13:38;14.60;;;8.33;;
1531;SDS011;759;53.170;8.210;2022-07-09T05:16:05;11.27;;;8.33;;
1531;SDS011;759;53.170;8.210;2022-07-09T05:18:31;11.80;;;8.00;;
1531;SDS011;759;53.170;8.210;2022-07-09T05:20:57;10.33;;;8.30;;
1531;SDS011;759;53.170;8.210;2022-07-09T05:23:23;15.97;;;9.80;;
1531;SDS011;759;53.170;8.210;2022-07-09T05:25:48;12.20;;;8.73;;
1531;SDS011;759;53.170;8.210;2022-07-09T05:28:14;9.07;;;8.17;;
1531;SDS011;759;53.170;8.210;2022-07-09T05:30:39;14.63;;;8.80;;
1531;SDS011;759;53.170;8.210;2022-07-09T05:33:05;14.33;;;10.30;;
1531;SDS011;759;53.170;8.210;2022-07-09T05:35:31;9.40;;;8.40;;
1531;SDS011;759;53.170;8.210;2022-07-09T05:37:56;12.60;;;10.30;;
1531;SDS011;759;53.170;8.210;2022-07-09T05:40:22;14.13;;;10.10;;
1531;SDS011;759;53.170;8.210;2022-07-09T05:42:47;10.80;;;9.10;;
1531;SDS011;759;53.170;8.210;2022-07-09T05:45:13;12.77;;;11.13;;
1531;SDS011;759;53.170;8.210;2022-07-09T05:47:39;12.85;;;10.15;;
1531;SDS011;759;53.170;8.210;2022-07-09T05:50:04;18.03;;;10.00;;
1531;SDS011;759;53.170;8.210;2022-07-09T05:52:30;11.17;;;9.13;;
1531;SDS011;759;53.170;8.210;2022-07-09T05:54:56;11.07;;;9.27;;
1531;SDS011;759;53.170;8.210;2022-07-09T05:57:21;9.70;;;8.53;;
1531;SDS011;759;53.170;8.210;2022-07-09T05:59:47;14.47;;;8.63;;
1531;SDS011;759;53.170;8.210;2022-07-09T06:02:12;12.93;;;8.20;;
1531;SDS011;759;53.170;8.210;2022-07-09T06:04:38;13.43;;;8.30;;
1531;SDS011;759;53.170;8.210;2022-07-09T06:07:03;18.83;;;7.97;;
1531;SDS011;759;53.170;8.210;2022-07-09T06:09:30;9.80;;;7.17;;
1531;SDS011;759;53.170;8.210;2022-07-09T06:11:56;11.33;;;7.43;;
1531;SDS011;759;53.170;8.210;2022-07-09T06:14:21;9.87;;;8.00;;
1531;SDS011;759;53.170;8.210;2022-07-09T06:16:46;12.23;;;7.00;;
1531;SDS011;759;53.170;8.210;2022-07-09T06:19:13;7.80;;;7.00;;
1531;SDS011;759;53.170;8.210;2022-07-09T06:21:39;8.27;;;6.80;;
1531;SDS011;759;53.170;8.210;2022-07-09T06:24:05;10.50;;;8.13;;
1531;SDS011;759;53.170;8.210;2022-07-09T06:26:31;11.80;;;6.20;;
1531;SDS011;759;53.170;8.210;2022-07-09T06:28:58;8.23;;;6.53;;
1531;SDS011;759;53.170;8.210;2022-07-09T06:31:24;6.90;;;6.20;;
1531;SDS011;759;53.170;8.210;2022-07-09T06:33:50;15.47;;;5.67;;
1531;SDS011;759;53.170;8.210;2022-07-09T06:36:15;8.67;;;5.57;;
1531;SDS011;759;53.170;8.210;2022-07-09T06:38:41;11.17;;;6.90;;
1531;SDS011;759;53.170;8.210;2022-07-09T06:41:25;11.50;;;5.90;;
1531;SDS011;759;53.170;8.210;2022-07-09T06:43:50;9.40;;;5.70;;
1531;SDS011;759;53.170;8.210;2022-07-09T06:46:16;7.15;;;4.95;;
1531;SDS011;759;53.170;8.210;2022-07-09T06:48:41;7.50;;;6.80;;
1531;SDS011;759;53.170;8.210;2022-07-09T06:51:07;7.90;;;6.37;;
1531;SDS011;759;53.170;8.210;2022-07-09T06:53:32;6.40;;;5.80;;
1531;SDS011;759;53.170;8.210;2022-07-09T06:55:57;6.33;;;5.70;;
1531;SDS011;759;53.170;8.210;2022-07-09T06:58:23;6.50;;;5.65;;
1531;SDS011;759;53.170;8.210;2022-07-09T07:00:48;5.03;;;4.47;;
1531;SDS011;759;53.170;8.210;2022-07-09T07:03:14;8.05;;;5.05;;
1531;SDS011;759;53.170;8.210;2022-07-09T07:05:40;7.17;;;5.10;;
1531;SDS011;759;53.170;8.210;2022-07-09T07:08:06;7.60;;;5.43;;
1531;SDS011;759;53.170;8.210;2022-07-09T07:10:31;11.15;;;6.10;;
1531;SDS011;759;53.170;8.210;2022-07-09T07:12:57;6.57;;;5.40;;
1531;SDS011;759;53.170;8.210;2022-07-09T07:15:23;5.65;;;4.30;;
1531;SDS011;759;53.170;8.210;2022-07-09T07:17:48;7.23;;;5.53;;
1531;SDS011;759;53.170;8.210;2022-07-09T07:42:02;7.20;;;4.40;;
1531;SDS011;759;53.170;8.210;2022-07-09T07:44:27;4.90;;;4.40;;
1531;SDS011;759;53.170;8.210;2022-07-09T07:59:03;4.30;;;3.80;;
1531;SDS011;759;53.170;8.210;2022-07-09T08:03:54;3.40;;;3.10;;
1531;SDS011;759;53.170;8.210;2022-07-09T08:18:30;3.10;;;2.50;;
1531;SDS011;759;53.170;8.210;2022-07-09T08:40:18;2.90;;;2.53;;
1531;SDS011;759;53.170;8.210;2022-07-09T08:42:44;2.40;;;2.17;;
1531;SDS011;759;53.170;8.210;2022-07-09T08:45:13;2.33;;;2.17;;
1531;SDS011;759;53.170;8.210;2022-07-09T08:47:40;4.97;;;2.17;;
1531;SDS011;759;53.170;8.210;2022-07-09T08:50:06;2.07;;;1.90;;
1531;SDS011;759;53.170;8.210;2022-07-09T08:52:32;2.65;;;1.55;;
1531;SDS011;759;53.170;8.210;2022-07-09T08:55:01;2.20;;;2.00;;
1531;SDS011;759;53.170;8.210;2022-07-09T08:57:26;4.10;;;1.70;;
1531;SDS011;759;53.170;8.210;2022-07-09T08:59:52;2.20;;;1.90;;
1531;SDS011;759;53.170;8.210;2022-07-09T09:02:17;1.97;;;1.77;;
1531;SDS011;759;53.170;8.210;2022-07-09T09:04:45;2.80;;;2.00;;
1531;SDS011;759;53.170;8.210;2022-07-09T09:07:17;2.13;;;1.53;;
1531;SDS011;759;53.170;8.210;2022-07-09T09:09:44;3.67;;;1.77;;
1531;SDS011;759;53.170;8.210;2022-07-09T09:12:10;1.90;;;1.80;;
1531;SDS011;759;53.170;8.210;2022-07-09T09:14:36;3.63;;;1.50;;
1531;SDS011;759;53.170;8.210;2022-07-09T09:17:09;2.35;;;1.50;;
1531;SDS011;759;53.170;8.210;2022-07-09T09:19:37;1.47;;;1.37;;
1531;SDS011;759;53.170;8.210;2022-07-09T09:22:06;2.97;;;1.80;;
1531;SDS011;759;53.170;8.210;2022-07-09T09:24:33;1.60;;;1.47;;
1531;SDS011;759;53.170;8.210;2022-07-09T09:26:59;3.10;;;1.70;;
1531;SDS011;759;53.170;8.210;2022-07-09T09:29:25;1.40;;;1.30;;
1531;SDS011;759;53.170;8.210;2022-07-09T09:31:51;1.87;;;1.10;;
1531;SDS011;759;53.170;8.210;2022-07-09T09:34:17;1.73;;;1.47;;
1531;SDS011;759;53.170;8.210;2022-07-09T09:36:44;1.60;;;1.50;;
1531;SDS011;759;53.170;8.210;2022-07-09T09:41:47;3.23;;;1.10;;
1531;SDS011;759;53.170;8.210;2022-07-09T13:27:35;5.20;;;1.60;;
1531;SDS011;759;53.170;8.210;2022-07-09T13:30:01;1.80;;;1.20;;
1531;SDS011;759;53.170;8.210;2022-07-09T13:32:27;2.00;;;1.00;;
1531;SDS011;759;53.170;8.210;2022-07-09T14:33:06;1.50;;;1.07;;
